createdAt,value
2022-08-03T00:00:00.392Z,0
2022-08-03T00:01:01.478Z,0
2022-08-03T00:02:02.413Z,0
2022-08-03T00:03:03.395Z,0
2022-08-03T00:04:04.474Z,0
2022-08-03T00:05:06.501Z,0
2022-08-03T00:06:07.414Z,0
2022-08-03T00:07:08.374Z,0
2022-08-03T00:08:09.372Z,0
2022-08-03T00:09:10.414Z,0
2022-08-03T00:10:11.356Z,0
2022-08-03T00:11:12.413Z,0
2022-08-03T00:12:13.641Z,0
2022-08-03T00:13:14.393Z,0
2022-08-03T00:14:15.485Z,0
2022-08-03T00:15:17.087Z,0
2022-08-03T00:16:17.414Z,0
2022-08-03T00:17:18.435Z,0
2022-08-03T00:18:19.354Z,0
2022-08-03T00:19:20.753Z,0
2022-08-03T00:20:22.413Z,0
2022-08-03T00:21:23.441Z,0
2022-08-03T00:22:24.433Z,0
2022-08-03T00:23:25.372Z,0
2022-08-03T00:24:26.414Z,0
2022-08-03T00:25:27.452Z,0
2022-08-03T00:26:28.452Z,0
2022-08-03T00:27:29.432Z,0
2022-08-03T00:28:30.414Z,0
2022-08-03T00:29:31.394Z,0
2022-08-03T00:30:32.436Z,0
2022-08-03T00:31:35.240Z,0
2022-08-03T00:32:34.353Z,0
2022-08-03T00:33:58.484Z,0
2022-08-03T00:34:57.073Z,0
2022-08-03T00:35:50.561Z,0
2022-08-03T00:36:38.452Z,0
2022-08-03T00:37:40.505Z,0
2022-08-03T00:38:40.434Z,0
2022-08-03T00:39:41.422Z,0
2022-08-03T00:40:42.332Z,0
2022-08-03T00:41:43.493Z,0
2022-08-03T00:42:44.414Z,0
2022-08-03T00:43:45.413Z,0
2022-08-03T00:44:46.393Z,0
2022-08-03T00:45:47.453Z,0
2022-08-03T00:46:48.532Z,0
2022-08-03T00:47:49.403Z,0
2022-08-03T00:48:50.815Z,0
2022-08-03T00:49:52.581Z,0
2022-08-03T00:50:54.387Z,0
2022-08-03T00:51:55.294Z,0
2022-08-03T00:52:56.432Z,0
2022-08-03T00:53:57.472Z,0
2022-08-03T00:54:58.495Z,0
2022-08-03T00:55:59.475Z,0
2022-08-03T00:57:00.602Z,0
2022-08-03T00:58:01.495Z,0
2022-08-03T00:59:02.423Z,0
2022-08-03T01:00:03.826Z,0
2022-08-03T01:04:03.577Z,0
2022-08-03T01:05:05.483Z,0
2022-08-03T01:06:06.494Z,0
2022-08-03T01:07:10.623Z,0
2022-08-03T01:08:09.417Z,0
2022-08-03T01:09:10.437Z,0
2022-08-03T01:10:11.394Z,0
2022-08-03T01:11:12.396Z,0
2022-08-03T01:12:13.665Z,0
2022-08-03T01:13:30.612Z,0
2022-08-03T01:14:18.486Z,0
2022-08-03T01:15:16.457Z,0
2022-08-03T01:16:17.415Z,0
2022-08-03T01:17:18.478Z,0
2022-08-03T01:18:19.539Z,0
2022-08-03T01:19:20.418Z,0
2022-08-03T01:20:21.436Z,0
2022-08-03T01:21:22.387Z,0
2022-08-03T01:22:23.377Z,0
2022-08-03T01:23:24.455Z,0
2022-08-03T01:24:25.396Z,0
2022-08-03T01:25:26.441Z,0
2022-08-03T01:26:27.414Z,0
2022-08-03T01:27:28.414Z,0
2022-08-03T01:28:29.475Z,0
2022-08-03T01:29:30.500Z,0
2022-08-03T01:30:31.419Z,0
2022-08-03T01:31:32.396Z,0
2022-08-03T01:32:51.981Z,0
2022-08-03T01:33:34.456Z,0
2022-08-03T01:34:35.417Z,0
2022-08-03T01:35:38.490Z,0
2022-08-03T01:36:37.434Z,0
2022-08-03T01:37:38.624Z,0
2022-08-03T01:38:39.534Z,0
2022-08-03T01:39:40.494Z,0
2022-08-03T01:40:41.434Z,0
2022-08-03T01:41:42.435Z,0
2022-08-03T01:42:43.437Z,0
2022-08-03T01:43:55.518Z,0
2022-08-03T01:44:45.475Z,0
2022-08-03T01:45:46.436Z,0
2022-08-03T01:46:47.938Z,0
2022-08-03T01:47:48.416Z,0
2022-08-03T01:48:49.441Z,0
2022-08-03T01:49:51.021Z,0
2022-08-03T01:50:52.437Z,0
2022-08-03T01:51:56.751Z,0
2022-08-03T01:52:54.435Z,0
2022-08-03T01:53:55.414Z,0
2022-08-03T01:54:56.434Z,0
2022-08-03T01:55:57.454Z,0
2022-08-03T01:56:58.475Z,0
2022-08-03T01:58:05.126Z,0
2022-08-03T01:59:00.422Z,0
2022-08-03T02:00:01.552Z,0
2022-08-03T02:01:02.586Z,0
2022-08-03T02:02:15.750Z,0
2022-08-03T02:03:04.538Z,0
2022-08-03T02:04:05.415Z,0
2022-08-03T02:05:10.826Z,0
2022-08-03T02:06:59.638Z,0
2022-08-03T02:07:08.455Z,0
2022-08-03T02:08:09.514Z,0
2022-08-03T02:09:10.475Z,0
2022-08-03T02:10:11.453Z,0
2022-08-03T02:11:12.513Z,0
2022-08-03T02:12:13.629Z,0
2022-08-03T02:13:14.495Z,0
2022-08-03T02:14:15.554Z,0
2022-08-03T02:15:16.654Z,0
2022-08-03T02:16:17.469Z,0
2022-08-03T02:17:18.494Z,0
2022-08-03T02:18:25.582Z,0
2022-08-03T02:19:26.515Z,0
2022-08-03T02:20:27.495Z,0
2022-08-03T02:21:56.157Z,0
2022-08-03T02:22:29.521Z,0
2022-08-03T02:23:30.474Z,0
2022-08-03T02:24:31.496Z,0
2022-08-03T02:25:32.591Z,0
2022-08-03T02:26:33.496Z,0
2022-08-03T02:27:34.521Z,0
2022-08-03T02:28:35.453Z,0
2022-08-03T02:29:39.018Z,0
2022-08-03T02:30:38.694Z,0
2022-08-03T02:31:40.473Z,0
2022-08-03T02:32:41.474Z,0
2022-08-03T02:33:42.553Z,0
2022-08-03T02:34:43.476Z,0
2022-08-03T02:35:44.514Z,0
2022-08-03T02:36:45.517Z,0
2022-08-03T02:37:49.528Z,0
2022-08-03T02:38:47.474Z,0
2022-08-03T02:39:48.474Z,0
2022-08-03T02:40:49.522Z,0
2022-08-03T02:41:50.972Z,0
2022-08-03T02:42:52.493Z,0
2022-08-03T02:44:05.782Z,0
2022-08-03T02:44:54.454Z,0
2022-08-03T02:45:55.433Z,0
2022-08-03T02:46:56.494Z,0
2022-08-03T02:47:57.461Z,0
2022-08-03T02:48:58.597Z,0
2022-08-03T02:49:59.752Z,0
2022-08-03T02:51:01.457Z,0
2022-08-03T02:52:02.482Z,0
2022-08-03T02:53:03.523Z,0
2022-08-03T02:54:04.573Z,0
2022-08-03T02:55:05.433Z,0
2022-08-03T02:56:06.473Z,0
2022-08-03T02:57:07.454Z,0
2022-08-03T02:58:14.669Z,0
2022-08-03T02:59:15.574Z,0
2022-08-03T03:00:19.581Z,0
2022-08-03T03:01:18.234Z,0
2022-08-03T03:02:19.853Z,0
2022-08-03T03:03:21.612Z,0
2022-08-03T03:04:24.965Z,0
2022-08-03T03:05:54.026Z,0
2022-08-03T03:06:25.533Z,0
2022-08-03T03:07:26.535Z,0
2022-08-03T03:08:28.561Z,0
2022-08-03T03:09:29.119Z,0
2022-08-03T03:10:29.556Z,0
2022-08-03T03:11:30.514Z,0
2022-08-03T03:12:31.418Z,0
2022-08-03T03:13:32.522Z,0
2022-08-03T03:14:34.197Z,0
2022-08-03T03:15:34.506Z,0
2022-08-03T03:16:35.495Z,0
2022-08-03T03:17:36.534Z,0
2022-08-03T03:18:37.473Z,0
2022-08-03T03:19:38.493Z,0
2022-08-03T03:20:39.579Z,0
2022-08-03T03:21:40.581Z,0
2022-08-03T03:22:41.493Z,0
2022-08-03T03:23:42.493Z,0
2022-08-03T03:24:43.493Z,0
2022-08-03T03:25:44.533Z,0
2022-08-03T03:26:45.555Z,0
2022-08-03T03:27:47.152Z,0
2022-08-03T03:28:47.515Z,0
2022-08-03T03:29:48.514Z,0
2022-08-03T03:30:52.538Z,0
2022-08-03T03:31:51.032Z,0
2022-08-03T03:32:52.791Z,0
2022-08-03T03:33:54.518Z,0
2022-08-03T03:34:55.513Z,0
2022-08-03T03:35:56.472Z,0
2022-08-03T03:36:57.513Z,0
2022-08-03T03:37:58.493Z,0
2022-08-03T03:38:59.683Z,0
2022-08-03T03:40:00.552Z,0
2022-08-03T03:41:01.493Z,0
2022-08-03T03:42:02.541Z,0
2022-08-03T03:43:03.562Z,0
2022-08-03T03:44:04.492Z,0
2022-08-03T03:45:05.513Z,0
2022-08-03T03:46:06.495Z,0
2022-08-03T03:47:07.500Z,0
2022-08-03T03:48:08.472Z,0
2022-08-03T03:49:09.558Z,0
2022-08-03T03:50:10.515Z,0
2022-08-03T03:51:11.533Z,0
2022-08-03T03:52:12.534Z,0
2022-08-03T03:53:13.535Z,0
2022-08-03T03:54:14.512Z,0
2022-08-03T03:55:15.495Z,0
2022-08-03T03:56:16.521Z,0
2022-08-03T03:57:17.511Z,0
2022-08-03T03:58:18.474Z,0
2022-08-03T03:59:19.574Z,0
2022-08-03T04:00:20.530Z,0
2022-08-03T04:01:21.548Z,0
2022-08-03T04:02:22.533Z,0
2022-08-03T04:03:23.554Z,0
2022-08-03T04:04:24.613Z,0
2022-08-03T04:05:25.512Z,0
2022-08-03T04:06:26.512Z,0
2022-08-03T04:07:27.493Z,0
2022-08-03T04:08:28.535Z,0
2022-08-03T04:09:29.573Z,0
2022-08-03T04:10:30.572Z,0
2022-08-03T04:11:31.951Z,0
2022-08-03T04:12:32.572Z,0
2022-08-03T04:13:33.534Z,0
2022-08-03T04:14:34.513Z,0
2022-08-03T04:15:35.583Z,0
2022-08-03T04:16:38.821Z,0
2022-08-03T04:17:37.534Z,0
2022-08-03T04:18:38.472Z,0
2022-08-03T04:19:39.574Z,0
2022-08-03T04:20:40.516Z,0
2022-08-03T04:21:41.512Z,0
2022-08-03T04:22:42.545Z,0
2022-08-03T04:23:43.536Z,0
2022-08-03T04:24:44.574Z,0
2022-08-03T04:25:45.512Z,0
2022-08-03T04:26:49.613Z,0
2022-08-03T04:28:08.288Z,0
2022-08-03T04:28:48.613Z,0
2022-08-03T04:29:49.474Z,0
2022-08-03T04:30:51.193Z,0
2022-08-03T04:31:52.593Z,0
2022-08-03T04:32:53.593Z,0
2022-08-03T04:33:54.495Z,0
2022-08-03T04:34:55.561Z,0
2022-08-03T04:35:58.538Z,0
2022-08-03T04:36:57.635Z,0
2022-08-03T04:37:58.643Z,0
2022-08-03T04:38:59.752Z,0
2022-08-03T04:40:01.632Z,0
2022-08-03T04:41:02.538Z,0
2022-08-03T04:42:07.767Z,0
2022-08-03T04:43:04.563Z,0
2022-08-03T04:44:05.590Z,0
2022-08-03T04:45:06.652Z,0
2022-08-03T04:46:08.672Z,0
2022-08-03T04:47:10.673Z,0
2022-08-03T04:48:12.712Z,0
2022-08-03T04:49:14.736Z,0
2022-08-03T04:50:19.486Z,0
2022-08-03T04:51:17.761Z,0
2022-08-03T04:52:19.655Z,0
2022-08-03T04:53:20.495Z,0
2022-08-03T04:54:21.575Z,0
2022-08-03T04:55:22.572Z,0
2022-08-03T04:56:23.535Z,0
2022-08-03T04:57:24.612Z,0
2022-08-03T04:58:25.554Z,0
2022-08-03T04:59:26.594Z,0
2022-08-03T05:00:27.632Z,0
2022-08-03T05:01:28.756Z,0
2022-08-03T05:02:29.632Z,0
2022-08-03T05:03:30.593Z,0
2022-08-03T05:04:31.714Z,0
2022-08-03T05:05:34.633Z,0
2022-08-03T05:06:35.616Z,0
2022-08-03T05:07:36.811Z,0
2022-08-03T05:08:41.158Z,0
2022-08-03T05:09:46.053Z,0
2022-08-03T05:10:39.654Z,0
2022-08-03T05:11:40.574Z,0
2022-08-03T05:12:41.653Z,0
2022-08-03T05:13:42.573Z,0
2022-08-03T05:14:43.535Z,0
2022-08-03T05:15:44.634Z,0
2022-08-03T05:16:45.577Z,0
2022-08-03T05:17:46.635Z,0
2022-08-03T05:18:47.609Z,0
2022-08-03T05:19:48.583Z,0
2022-08-03T05:20:49.600Z,0
2022-08-03T05:21:52.276Z,0
2022-08-03T05:22:52.547Z,0
2022-08-03T05:23:53.633Z,0
2022-08-03T05:24:54.615Z,0
2022-08-03T05:25:55.615Z,0
2022-08-03T05:26:56.596Z,0
2022-08-03T05:27:57.571Z,0
2022-08-03T05:28:58.574Z,0
2022-08-03T05:30:26.541Z,0
2022-08-03T05:31:01.613Z,0
2022-08-03T05:32:06.318Z,0
2022-08-03T05:33:03.634Z,0
2022-08-03T05:34:04.641Z,0
2022-08-03T05:35:56.499Z,0
2022-08-03T05:36:06.661Z,0
2022-08-03T05:37:07.712Z,0
2022-08-03T05:38:09.590Z,0
2022-08-03T05:39:10.518Z,0
2022-08-03T05:40:11.617Z,0
2022-08-03T05:41:20.747Z,0
2022-08-03T05:42:13.647Z,0
2022-08-03T05:43:14.654Z,0
2022-08-03T05:44:15.600Z,0
2022-08-03T05:45:16.574Z,0
2022-08-03T05:46:17.602Z,0
2022-08-03T05:47:18.654Z,0
2022-08-03T05:48:19.633Z,0
2022-08-03T05:49:20.682Z,0
2022-08-03T05:50:21.515Z,0
2022-08-03T05:51:22.557Z,0
2022-08-03T05:52:23.955Z,0
2022-08-03T05:53:27.274Z,0
2022-08-03T05:54:55.684Z,0
2022-08-03T05:55:29.593Z,0
2022-08-03T05:56:30.622Z,0
2022-08-03T05:57:31.601Z,0
2022-08-03T05:58:32.674Z,0
2022-08-03T05:59:38.355Z,0
2022-08-03T06:00:34.615Z,0
2022-08-03T06:01:35.710Z,0
2022-08-03T06:02:36.578Z,0
2022-08-03T06:03:37.578Z,0
2022-08-03T06:04:38.604Z,0
2022-08-03T06:05:43.151Z,0
2022-08-03T06:06:40.714Z,0
2022-08-03T06:07:41.598Z,0
2022-08-03T06:08:42.674Z,0
2022-08-03T06:10:34.700Z,0
2022-08-03T06:10:44.682Z,0
2022-08-03T06:11:46.042Z,0
2022-08-03T06:12:46.551Z,0
2022-08-03T06:13:47.611Z,0
2022-08-03T06:14:48.654Z,0
2022-08-03T06:15:49.615Z,0
2022-08-03T06:16:50.634Z,0
2022-08-03T06:17:51.573Z,0
2022-08-03T06:18:52.589Z,0
2022-08-03T06:19:53.594Z,0
2022-08-03T06:20:55.011Z,0
2022-08-03T06:21:55.607Z,0
2022-08-03T06:23:00.093Z,0
2022-08-03T06:23:57.675Z,0
2022-08-03T06:24:58.635Z,0
2022-08-03T06:25:59.717Z,0
2022-08-03T06:27:00.714Z,0
2022-08-03T06:28:01.634Z,0
2022-08-03T06:29:03.783Z,0
2022-08-03T06:30:03.762Z,0
2022-08-03T06:31:06.401Z,0
2022-08-03T06:32:05.674Z,0
2022-08-03T06:33:08.272Z,0
2022-08-03T06:34:34.551Z,0
2022-08-03T06:35:08.654Z,0
2022-08-03T06:36:09.674Z,0
2022-08-03T06:37:10.675Z,0
2022-08-03T06:38:11.637Z,0
2022-08-03T06:39:12.640Z,0
2022-08-03T06:40:13.869Z,0
2022-08-03T06:41:14.716Z,0
2022-08-03T06:42:15.936Z,0
2022-08-03T06:43:16.635Z,0
2022-08-03T06:44:17.833Z,0
2022-08-03T06:45:19.734Z,0
2022-08-03T06:46:20.622Z,0
2022-08-03T06:47:21.499Z,0
2022-08-03T06:48:22.775Z,0
2022-08-03T06:49:24.757Z,0
2022-08-03T06:50:26.225Z,0
2022-08-03T06:52:04.698Z,0
2022-08-03T06:52:27.634Z,0
2022-08-03T06:53:28.543Z,0
2022-08-03T06:54:32.831Z,0
2022-08-03T06:55:30.676Z,0
2022-08-03T06:56:31.616Z,0
2022-08-03T06:57:32.657Z,0
2022-08-03T06:58:33.636Z,0
2022-08-03T07:00:06.817Z,0
2022-08-03T07:00:35.636Z,0
2022-08-03T07:01:36.627Z,0
2022-08-03T07:02:37.659Z,0
2022-08-03T07:03:38.673Z,0
2022-08-03T07:04:39.717Z,0
2022-08-03T07:05:40.618Z,0
2022-08-03T07:06:41.616Z,0
2022-08-03T07:07:42.674Z,0
2022-08-03T07:08:43.715Z,0
2022-08-03T07:09:55.786Z,0
2022-08-03T07:10:45.637Z,0
2022-08-03T07:11:46.595Z,0
2022-08-03T07:12:52.955Z,0
2022-08-03T07:13:48.735Z,0
2022-08-03T07:14:49.638Z,0
2022-08-03T07:15:54.824Z,0
2022-08-03T07:16:51.755Z,0
2022-08-03T07:17:53.609Z,0
2022-08-03T07:18:54.635Z,0
2022-08-03T07:19:55.674Z,0
2022-08-03T07:20:56.678Z,0
2022-08-03T07:21:58.282Z,0
2022-08-03T07:22:58.615Z,0
2022-08-03T07:23:59.757Z,0
2022-08-03T07:25:00.696Z,0
2022-08-03T07:26:01.660Z,0
2022-08-03T07:27:02.877Z,0.6
2022-08-03T07:28:04.715Z,0.24
2022-08-03T07:29:07.896Z,0.51
2022-08-03T07:30:07.773Z,1.03
2022-08-03T07:31:09.636Z,0.49
2022-08-03T07:32:10.679Z,0
2022-08-03T07:33:11.654Z,0.18
2022-08-03T07:34:13.094Z,0
2022-08-03T07:35:24.187Z,0.48
2022-08-03T07:36:15.671Z,0.43
2022-08-03T07:37:16.662Z,0.3
2022-08-03T07:38:20.858Z,0.7
2022-08-03T07:39:18.697Z,0.16
2022-08-03T07:40:19.754Z,1.12
2022-08-03T07:41:20.700Z,1.25
2022-08-03T07:42:21.771Z,1.4
2022-08-03T07:43:23.755Z,0.53
2022-08-03T07:44:24.674Z,0.27
2022-08-03T07:45:25.653Z,0.64
2022-08-03T07:46:26.839Z,0.7
2022-08-03T07:47:35.178Z,0.72
2022-08-03T07:48:28.683Z,1.03
2022-08-03T07:49:29.772Z,0.99
2022-08-03T07:50:30.776Z,0.71
2022-08-03T07:51:31.599Z,0.6
2022-08-03T07:52:32.682Z,1.03
2022-08-03T07:53:33.675Z,1.35
2022-08-03T07:54:34.722Z,0.79
2022-08-03T07:55:35.782Z,0.4
2022-08-03T07:56:36.675Z,0.33
2022-08-03T07:57:37.674Z,0
2022-08-03T07:58:38.675Z,0.55
2022-08-03T07:59:56.448Z,1.3
2022-08-03T08:00:40.854Z,0.8
2022-08-03T08:01:41.950Z,0.73
2022-08-03T08:02:43.642Z,0.92
2022-08-03T08:03:52.508Z,0.46
2022-08-03T08:04:45.673Z,0.51
2022-08-03T08:05:46.677Z,0.68
2022-08-03T08:06:47.654Z,0.54
2022-08-03T08:07:50.697Z,0.71
2022-08-03T08:08:49.673Z,0.46
2022-08-03T08:09:50.694Z,0.4
2022-08-03T08:10:56.605Z,1.35
2022-08-03T08:11:52.874Z,0.41
2022-08-03T08:12:54.675Z,0.61
2022-08-03T08:13:55.694Z,0.55
2022-08-03T08:14:56.654Z,0.53
2022-08-03T08:15:57.615Z,0.19
2022-08-03T08:16:58.654Z,0.4
2022-08-03T08:17:59.714Z,0.96
2022-08-03T08:19:00.698Z,0.85
2022-08-03T08:20:01.694Z,0.49
2022-08-03T08:21:02.655Z,0.47
2022-08-03T08:22:03.714Z,0.96
2022-08-03T08:23:08.938Z,0.76
2022-08-03T08:24:09.472Z,0.77
2022-08-03T08:25:06.704Z,1.01
2022-08-03T08:26:07.876Z,0.26
2022-08-03T08:27:09.775Z,0.61
2022-08-03T08:28:22.021Z,0.7
2022-08-03T08:29:12.694Z,1.08
2022-08-03T08:30:17.319Z,0.96
2022-08-03T08:31:14.654Z,0.78
2022-08-03T08:32:15.918Z,0.7
2022-08-03T08:33:22.387Z,1.01
2022-08-03T08:34:17.719Z,0.51
2022-08-03T08:35:18.697Z,0.35
2022-08-03T08:36:19.874Z,0.6
2022-08-03T08:37:20.693Z,0.35
2022-08-03T08:38:21.673Z,1.06
2022-08-03T08:39:22.754Z,0.8
2022-08-03T08:40:23.733Z,0.82
2022-08-03T08:41:24.765Z,1.45
2022-08-03T08:42:25.828Z,1.34
2022-08-03T08:43:27.760Z,0.75
2022-08-03T08:44:28.734Z,0.42
2022-08-03T08:45:29.908Z,1.73
2022-08-03T08:46:30.734Z,1.12
2022-08-03T08:47:51.349Z,0.9
2022-08-03T08:48:32.715Z,0.57
2022-08-03T08:49:33.821Z,1.22
2022-08-03T08:50:34.793Z,0.88
2022-08-03T08:51:43.896Z,0.76
2022-08-03T08:52:37.862Z,1.65
2022-08-03T08:53:39.773Z,0.35
2022-08-03T08:54:40.775Z,0.82
2022-08-03T08:55:57.933Z,1.42
2022-08-03T08:56:42.734Z,1.07
2022-08-03T08:57:43.708Z,0.63
2022-08-03T08:58:44.673Z,0.75
2022-08-03T08:59:48.149Z,0.61
2022-08-03T09:00:46.766Z,0.35
2022-08-03T09:01:47.715Z,0.19
2022-08-03T09:02:48.737Z,0.63
2022-08-03T09:03:49.713Z,0.79
2022-08-03T09:04:50.742Z,0.62
2022-08-03T09:05:56.005Z,0.23
2022-08-03T09:07:10.770Z,0.74
2022-08-03T09:07:53.753Z,0.77
2022-08-03T09:08:54.893Z,1.17
2022-08-03T09:10:00.390Z,0.39
2022-08-03T09:10:57.743Z,0.71
2022-08-03T09:12:14.525Z,0.46
2022-08-03T09:12:59.792Z,0.28
2022-08-03T09:14:00.751Z,0.57
2022-08-03T09:15:16.279Z,1.6
2022-08-03T09:16:02.873Z,0.44
2022-08-03T09:17:03.794Z,0.72
2022-08-03T09:18:04.724Z,1.17
2022-08-03T09:19:05.754Z,0.72
2022-08-03T09:20:06.834Z,0.64
2022-08-03T09:21:24.447Z,0.63
2022-08-03T09:22:08.693Z,0.59
2022-08-03T09:23:33.395Z,0.65
2022-08-03T09:24:20.815Z,0.91
2022-08-03T09:25:26.605Z,1.4
2022-08-03T09:26:12.673Z,0.69
2022-08-03T09:27:13.714Z,0.91
2022-08-03T09:28:14.753Z,1.3
2022-08-03T09:29:15.739Z,0.4
2022-08-03T09:30:32.168Z,1.23
2022-08-03T09:31:17.777Z,1.64
2022-08-03T09:32:18.841Z,0.75
2022-08-03T09:33:20.747Z,0.71
2022-08-03T09:34:21.754Z,1.31
2022-08-03T09:35:27.947Z,0.68
2022-08-03T09:36:23.676Z,1.22
2022-08-03T09:38:11.953Z,0.29
2022-08-03T09:38:25.733Z,0.32
2022-08-03T09:39:28.651Z,0.57
2022-08-03T09:40:27.703Z,0.56
2022-08-03T09:41:28.754Z,0.31
2022-08-03T09:42:29.713Z,0.86
2022-08-03T09:43:30.773Z,1.39
2022-08-03T09:44:31.774Z,1.64
2022-08-03T09:45:32.752Z,1.09
2022-08-03T09:46:33.737Z,0.23
2022-08-03T09:47:34.896Z,0.3
2022-08-03T09:48:35.714Z,0.64
2022-08-03T09:49:36.790Z,0.2
2022-08-03T09:50:37.713Z,0.4
2022-08-03T09:52:28.894Z,0.41
2022-08-03T09:52:50.315Z,0.83
2022-08-03T09:53:42.794Z,0.65
2022-08-03T09:54:43.753Z,0.86
2022-08-03T09:56:33.115Z,0.26
2022-08-03T09:56:45.734Z,0.75
2022-08-03T09:57:46.815Z,0.82
2022-08-03T09:58:47.801Z,0.62
2022-08-03T09:59:48.734Z,0.48
2022-08-03T10:00:49.821Z,1.2
2022-08-03T10:01:50.713Z,0.96
2022-08-03T10:02:51.853Z,1.3
2022-08-03T10:04:02.898Z,1.05
2022-08-03T10:04:53.734Z,1.02
2022-08-03T10:05:59.154Z,1.03
2022-08-03T10:06:55.772Z,0.7
2022-08-03T10:07:56.733Z,0.66
2022-08-03T10:08:57.814Z,0.77
2022-08-03T10:10:28.737Z,0.34
2022-08-03T10:10:59.754Z,0
2022-08-03T10:12:00.758Z,0.54
2022-08-03T10:13:01.685Z,0
2022-08-03T10:14:02.841Z,0.72
2022-08-03T10:15:03.933Z,0.98
2022-08-03T10:16:20.634Z,0.25
2022-08-03T10:17:05.844Z,1.06
2022-08-03T10:18:06.876Z,0.88
2022-08-03T10:19:07.813Z,1.42
2022-08-03T10:20:08.834Z,1.08
2022-08-03T10:21:09.774Z,0.86
2022-08-03T10:22:10.780Z,1.12
2022-08-03T10:23:11.813Z,0.81
2022-08-03T10:24:12.662Z,0.43
2022-08-03T10:25:13.873Z,0.38
2022-08-03T10:26:14.742Z,0.51
2022-08-03T10:27:15.966Z,1.06
2022-08-03T10:28:16.796Z,0.88
2022-08-03T10:29:18.453Z,0.85
2022-08-03T10:30:19.852Z,0.77
2022-08-03T10:31:20.771Z,0.3
2022-08-03T10:32:21.802Z,0.23
2022-08-03T10:33:50.446Z,0.54
2022-08-03T10:34:23.813Z,0.51
2022-08-03T10:35:24.856Z,1.15
2022-08-03T10:36:25.832Z,1.04
2022-08-03T10:37:26.753Z,0.78
2022-08-03T10:38:27.732Z,0.79
2022-08-03T10:39:28.715Z,1.4
2022-08-03T10:41:30.926Z,0.71
2022-08-03T10:42:31.772Z,0.59
2022-08-03T10:43:32.875Z,0.62
2022-08-03T10:44:33.716Z,0.68
2022-08-03T10:45:34.838Z,0.66
2022-08-03T10:46:35.751Z,0.17
2022-08-03T10:47:36.921Z,0.85
2022-08-03T10:48:37.853Z,0.91
2022-08-03T10:49:38.962Z,0.92
2022-08-03T10:50:40.859Z,0.47
2022-08-03T10:51:41.757Z,0.42
2022-08-03T10:52:43.563Z,1.31
2022-08-03T10:53:44.086Z,0.56
2022-08-03T10:54:44.773Z,0.46
2022-08-03T10:55:45.855Z,0.78
2022-08-03T10:56:48.087Z,0.48
2022-08-03T10:57:48.955Z,0.41
2022-08-03T10:58:53.576Z,0.83
2022-08-03T10:59:49.773Z,0.34
2022-08-03T11:00:50.886Z,0
2022-08-03T11:01:59.407Z,0.56
2022-08-03T11:02:52.732Z,1.26
2022-08-03T11:03:53.763Z,1.89
2022-08-03T11:04:54.796Z,0.77
2022-08-03T11:05:55.874Z,1.24
2022-08-03T11:06:56.774Z,0.71
2022-08-03T11:07:57.754Z,0.34
2022-08-03T11:08:58.821Z,0.41
2022-08-03T11:09:59.896Z,0.38
2022-08-03T11:11:00.933Z,1.21
2022-08-03T11:12:01.815Z,0.73
2022-08-03T11:13:02.874Z,1.17
2022-08-03T11:14:03.893Z,1.21
2022-08-03T11:15:04.873Z,1.33
2022-08-03T11:16:07.153Z,1.14
2022-08-03T11:17:06.793Z,1.24
2022-08-03T11:18:07.784Z,1.16
2022-08-03T11:19:08.837Z,0.76
2022-08-03T11:20:09.898Z,0.47
2022-08-03T11:21:10.812Z,0.57
2022-08-03T11:22:11.798Z,1.22
2022-08-03T11:23:12.813Z,2.12
2022-08-03T11:24:13.776Z,2.38
2022-08-03T11:25:34.781Z,1.61
2022-08-03T11:26:15.881Z,1.39
2022-08-03T11:27:17.042Z,0.82
2022-08-03T11:28:17.892Z,0.36
2022-08-03T11:29:18.814Z,1.01
2022-08-03T11:30:19.893Z,0.6
2022-08-03T11:31:39.546Z,0.95
2022-08-03T11:32:21.855Z,0.94
2022-08-03T11:33:22.780Z,1.42
2022-08-03T11:34:23.785Z,1.16
2022-08-03T11:35:24.833Z,1.06
2022-08-03T11:36:32.151Z,0.77
2022-08-03T11:37:32.939Z,0.59
2022-08-03T11:38:28.815Z,1.32
2022-08-03T11:39:32.873Z,1.35
2022-08-03T11:40:33.814Z,2.46
2022-08-03T11:41:42.873Z,1.62
2022-08-03T11:42:35.853Z,1.28
2022-08-03T11:43:36.841Z,1.6
2022-08-03T11:44:37.753Z,0.93
2022-08-03T11:45:38.813Z,0.19
2022-08-03T11:46:39.833Z,0.16
2022-08-03T11:47:50.350Z,0.25
2022-08-03T11:48:41.833Z,0.21
2022-08-03T11:49:42.874Z,0.48
2022-08-03T11:50:43.853Z,1.81
2022-08-03T11:51:45.013Z,0.98
2022-08-03T11:52:46.865Z,1.89
2022-08-03T11:53:47.813Z,1.55
2022-08-03T11:54:48.793Z,1.18
2022-08-03T11:55:49.842Z,1.22
2022-08-03T11:56:50.855Z,0.32
2022-08-03T11:58:57.458Z,0.42
2022-08-03T11:59:00.471Z,0.66
2022-08-03T11:59:53.882Z,0.42
2022-08-03T12:00:54.860Z,0.16
2022-08-03T12:01:55.798Z,0.59
2022-08-03T12:02:57.044Z,0.88
2022-08-03T12:03:58.994Z,0.5
2022-08-03T12:04:59.914Z,0.08
2022-08-03T12:06:00.818Z,0.59
2022-08-03T12:07:01.794Z,0.36
2022-08-03T12:08:06.291Z,2.02
2022-08-03T12:09:04.773Z,2.53
2022-08-03T12:10:05.833Z,0.95
2022-08-03T12:11:06.824Z,0.78
2022-08-03T12:12:07.853Z,1.19
2022-08-03T12:13:57.220Z,0.64
2022-08-03T12:14:44.025Z,0.39
2022-08-03T12:15:11.875Z,0.27
2022-08-03T12:16:12.856Z,0.57
2022-08-03T12:17:13.795Z,0
2022-08-03T12:18:14.854Z,0.59
2022-08-03T12:19:15.854Z,1.04
2022-08-03T12:20:16.796Z,0.75
2022-08-03T12:21:17.896Z,0.76
2022-08-03T12:22:18.843Z,1.71
2022-08-03T12:23:19.914Z,0.27
2022-08-03T12:24:20.904Z,0.78
2022-08-03T12:25:25.794Z,1.15
2022-08-03T12:26:22.868Z,0.7
2022-08-03T12:27:24.014Z,1.24
2022-08-03T12:28:28.552Z,1.02
2022-08-03T12:29:26.895Z,1.1
2022-08-03T12:30:27.878Z,1.06
2022-08-03T12:31:28.853Z,1.16
2022-08-03T12:32:29.792Z,0.8
2022-08-03T12:33:30.839Z,0.74
2022-08-03T12:34:31.835Z,0.06
2022-08-03T12:35:32.874Z,0.21
2022-08-03T12:36:33.833Z,0.54
2022-08-03T12:37:35.115Z,0.61
2022-08-03T12:38:36.372Z,0.64
2022-08-03T12:39:36.793Z,0.21
2022-08-03T12:40:37.898Z,0.52
2022-08-03T12:41:38.813Z,0.64
2022-08-03T12:42:39.895Z,1.38
2022-08-03T12:43:40.809Z,1.79
2022-08-03T12:44:41.797Z,2.56
2022-08-03T12:45:42.874Z,1.42
2022-08-03T12:46:47.640Z,0.73
2022-08-03T12:47:44.854Z,1.05
2022-08-03T12:48:45.874Z,0.8
2022-08-03T12:49:46.914Z,0
2022-08-03T12:50:47.954Z,0
2022-08-03T12:51:48.767Z,0
2022-08-03T12:52:49.835Z,0.64
2022-08-03T12:53:50.954Z,0.88
2022-08-03T12:54:51.875Z,0.88
2022-08-03T12:55:57.489Z,0.2
2022-08-03T12:56:53.862Z,1.73
2022-08-03T12:57:54.853Z,1.21
2022-08-03T12:58:55.994Z,0.9
2022-08-03T12:59:57.898Z,0.48
2022-08-03T13:00:58.973Z,1.04
2022-08-03T13:01:59.896Z,0.43
2022-08-03T13:03:27.657Z,0.27
2022-08-03T13:04:01.835Z,0.17
2022-08-03T13:05:02.954Z,0.68
2022-08-03T13:06:03.934Z,0.47
2022-08-03T13:07:04.881Z,0.43
2022-08-03T13:08:05.943Z,0.55
2022-08-03T13:09:06.937Z,0.24
2022-08-03T13:10:08.389Z,0.23
2022-08-03T13:11:09.016Z,1.31
2022-08-03T13:12:10.994Z,0.71
2022-08-03T13:13:11.943Z,1.05
2022-08-03T13:14:13.574Z,1.64
2022-08-03T13:15:13.913Z,0.35
2022-08-03T13:16:19.117Z,0.5
2022-08-03T13:17:15.771Z,0.75
2022-08-03T13:18:17.226Z,0.3
2022-08-03T13:19:17.881Z,0.22
2022-08-03T13:20:19.296Z,0.51
2022-08-03T13:21:20.929Z,0.85
2022-08-03T13:22:21.875Z,0.46
2022-08-03T13:23:22.944Z,1
2022-08-03T13:24:23.873Z,1.12
2022-08-03T13:25:24.915Z,0.93
2022-08-03T13:26:25.954Z,1.09
2022-08-03T13:28:02.836Z,1.15
2022-08-03T13:28:28.133Z,0.31
2022-08-03T13:29:29.895Z,0.75
2022-08-03T13:30:30.935Z,1
2022-08-03T13:31:31.861Z,0.53
2022-08-03T13:32:32.896Z,0.54
2022-08-03T13:33:33.993Z,0.82
2022-08-03T13:34:34.854Z,0.39
2022-08-03T13:35:35.913Z,0.8
2022-08-03T13:36:59.350Z,0.92
2022-08-03T13:37:37.909Z,1.05
2022-08-03T13:38:38.991Z,0.74
2022-08-03T13:39:48.391Z,0.72
2022-08-03T13:40:42.935Z,0.56
2022-08-03T13:41:43.848Z,1.13
2022-08-03T13:42:44.894Z,1.01
2022-08-03T13:43:45.876Z,0.54
2022-08-03T13:44:46.894Z,0.44
2022-08-03T13:45:51.388Z,0.27
2022-08-03T13:46:48.953Z,0.46
2022-08-03T13:47:49.896Z,0
2022-08-03T13:48:50.972Z,0.78
2022-08-03T13:49:59.572Z,0.68
2022-08-03T13:50:53.974Z,0.45
2022-08-03T13:51:54.734Z,0.85
2022-08-03T13:52:55.953Z,1.84
2022-08-03T13:53:56.955Z,1.1
2022-08-03T13:54:57.894Z,0.91
2022-08-03T13:55:58.973Z,0.33
2022-08-03T13:57:02.976Z,0.21
2022-08-03T13:58:01.609Z,0.7
2022-08-03T13:59:01.914Z,0
2022-08-03T14:00:03.350Z,0.2
2022-08-03T14:01:04.974Z,0.85
2022-08-03T14:02:05.986Z,0.53
2022-08-03T14:03:13.995Z,0.15
2022-08-03T14:04:15.872Z,0.51
2022-08-03T14:05:08.928Z,0.36
2022-08-03T14:06:09.935Z,0.29
2022-08-03T14:07:10.914Z,0.25
2022-08-03T14:08:11.963Z,0.35
2022-08-03T14:09:12.982Z,0
2022-08-03T14:10:13.900Z,0.25
2022-08-03T14:11:14.853Z,0.34
2022-08-03T14:12:15.948Z,0.77
2022-08-03T14:13:17.775Z,1.12
2022-08-03T14:14:18.002Z,0.71
2022-08-03T14:15:18.956Z,0.59
2022-08-03T14:16:19.933Z,0.45
2022-08-03T14:17:23.132Z,1
2022-08-03T14:18:28.019Z,1.2
2022-08-03T14:19:24.985Z,0.69
2022-08-03T14:20:37.591Z,0.69
2022-08-03T14:21:24.894Z,1.02
2022-08-03T14:22:25.849Z,0.1
2022-08-03T14:23:26.898Z,1.14
2022-08-03T14:24:27.936Z,0.57